EHEH/EIN METAR and TAF weather

Enter ICAO airport designator
Station Type Date Time Source
EHEH METAR 2019/08/24 19:55 UTC NOAA

EHEH 241955Z AUTO 03002KT 9999 NCD 21/12 Q1018 BLU 07005KT CAVOK


Station Type Date Time Source
EHEH Decoded METAR 2019/08/24 19:55 UTC NOAA

Station name not available
Aug 24, 2019 - 03:55 PM EDT / 2019.08.24 1955 UTC
Wind: from the NNE (030 degrees) at 2 MPH (2 KT):0
Visibility: greater than 7 mile(s):0
Temperature: 69 F (21 C)
Dew Point: 53 F (12 C)
Relative Humidity: 56%
Pressure (altimeter): 30.06 in. Hg (1018 hPa)
ob: EHEH 241955Z AUTO 03002KT 9999 NCD 21/12 Q1018 BLU 07005KT CAVOK
cycle: 20

Station Type Date Time Source
EHEH TAF 2019/08/24 18:09 UTC NOAA

TAF TAF EHEH 241700Z 2418/2524 09005KT CAVOK
BECMG 2511/2514 02005KT

Example: see airport list